createdAt,value
2022-08-10T00:01:54.410Z,1.05
2022-08-10T00:04:23.062Z,0.93
2022-08-10T00:06:52.615Z,1.10
2022-08-10T00:09:20.035Z,1.02
2022-08-10T00:11:46.766Z,1.00
2022-08-10T00:14:13.513Z,0.90
2022-08-10T00:16:40.326Z,1.17
2022-08-10T00:19:07.017Z,0.80
2022-08-10T00:21:33.757Z,0.75
2022-08-10T00:24:00.639Z,1.10
2022-08-10T00:27:58.657Z,0.90
2022-08-10T00:29:14.152Z,0.80
2022-08-10T00:31:58.441Z,1.15
2022-08-10T00:34:55.346Z,1.10
2022-08-10T00:37:22.194Z,0.75
2022-08-10T00:39:49.008Z,0.85
2022-08-10T00:42:16.324Z,0.95
2022-08-10T00:44:47.662Z,0.90
2022-08-10T00:47:22.642Z,0.95
2022-08-10T00:50:01.615Z,0.90
2022-08-10T00:52:30.812Z,0.90
2022-08-10T00:54:58.613Z,0.80
2022-08-10T00:57:25.821Z,0.82
2022-08-10T01:00:43.124Z,0.90
2022-08-10T01:03:09.873Z,0.90
2022-08-10T01:05:51.279Z,1.10
2022-08-10T01:08:32.240Z,1.00
2022-08-10T01:12:28.635Z,0.82
2022-08-10T01:14:08.178Z,0.95
2022-08-10T01:16:40.547Z,1.00
2022-08-10T01:19:25.504Z,0.82
2022-08-10T01:22:26.178Z,1.20
2022-08-10T01:25:21.648Z,0.90
2022-08-10T01:28:04.602Z,0.90
2022-08-10T01:30:33.747Z,1.13
2022-08-10T01:33:10.477Z,0.60
2022-08-10T01:35:49.074Z,1.10
2022-08-10T01:38:24.700Z,1.00
2022-08-10T01:41:00.243Z,0.90
2022-08-10T01:43:30.567Z,1.08
2022-08-10T01:46:01.510Z,1.20
2022-08-10T01:48:32.622Z,1.45
2022-08-10T01:51:27.542Z,1.20
2022-08-10T01:54:14.444Z,1.00
2022-08-10T01:56:45.397Z,1.00
2022-08-10T01:59:13.789Z,1.08
2022-08-10T02:01:45.383Z,1.10
2022-08-10T02:04:14.124Z,0.88
2022-08-10T02:06:45.368Z,1.20
2022-08-10T02:09:17.079Z,0.98
2022-08-10T02:12:06.142Z,1.05
2022-08-10T02:14:43.925Z,1.00
2022-08-10T02:17:57.671Z,1.02
2022-08-10T02:20:07.471Z,1.10
2022-08-10T02:22:38.872Z,0.90
2022-08-10T02:25:42.715Z,1.10
2022-08-10T02:27:59.330Z,1.02
2022-08-10T02:30:28.596Z,1.10
2022-08-10T02:32:58.914Z,1.08
2022-08-10T02:35:27.826Z,1.00
2022-08-10T02:38:06.163Z,0.98
2022-08-10T02:45:14.590Z,0.93
2022-08-10T02:45:18.779Z,1.10
2022-08-10T02:46:29.352Z,1.40
2022-08-10T02:49:04.579Z,1.10
2022-08-10T02:52:07.139Z,1.08
2022-08-10T02:54:43.224Z,1.20
2022-08-10T02:57:16.627Z,1.67
2022-08-10T02:59:48.240Z,1.10
2022-08-10T03:02:27.946Z,1.38
2022-08-10T03:05:01.290Z,1.30
2022-08-10T03:07:43.989Z,1.20
2022-08-10T03:10:32.837Z,1.10
2022-08-10T03:13:01.894Z,1.10
2022-08-10T03:15:34.554Z,1.33
2022-08-10T03:18:02.976Z,1.02
2022-08-10T03:20:39.622Z,1.30
2022-08-10T03:23:21.727Z,1.20
2022-08-10T03:25:53.076Z,1.45
2022-08-10T03:28:27.537Z,1.20
2022-08-10T03:30:55.002Z,1.48
2022-08-10T03:33:24.318Z,1.20
2022-08-10T03:36:42.055Z,1.20
2022-08-10T03:38:40.563Z,1.40
2022-08-10T03:41:11.523Z,1.35
2022-08-10T03:43:47.592Z,1.20
2022-08-10T03:46:16.199Z,1.00
2022-08-10T03:48:49.409Z,1.50
2022-08-10T03:51:19.447Z,1.30
2022-08-10T03:54:03.587Z,1.27
2022-08-10T03:56:36.046Z,1.23
2022-08-10T03:59:03.250Z,1.38
2022-08-10T04:02:46.227Z,1.83
2022-08-10T04:04:23.597Z,1.80
2022-08-10T04:06:54.901Z,1.45
2022-08-10T04:09:42.709Z,1.40
2022-08-10T04:12:13.718Z,1.50
2022-08-10T04:14:49.257Z,1.92
2022-08-10T04:18:03.975Z,1.45
2022-08-10T04:20:34.273Z,1.40
2022-08-10T04:23:06.885Z,1.35
2022-08-10T04:25:34.438Z,1.35
2022-08-10T04:28:01.695Z,1.38
2022-08-10T04:30:31.936Z,1.50
2022-08-10T04:33:01.775Z,1.70
2022-08-10T04:35:29.761Z,1.63
2022-08-10T04:37:58.130Z,1.73
2022-08-10T04:40:30.383Z,1.25
2022-08-10T04:43:12.883Z,1.38
2022-08-10T04:45:50.286Z,1.40
2022-08-10T04:48:40.613Z,1.35
2022-08-10T04:51:17.503Z,1.30
2022-08-10T04:54:05.362Z,1.90
2022-08-10T04:56:38.107Z,1.55
2022-08-10T04:59:10.211Z,1.70
2022-08-10T05:02:22.724Z,1.65
2022-08-10T05:04:36.849Z,1.70
2022-08-10T05:07:16.594Z,1.40
2022-08-10T05:10:01.628Z,1.80
2022-08-10T05:12:41.107Z,1.70
2022-08-10T05:15:12.600Z,1.40
2022-08-10T05:18:08.636Z,1.42
2022-08-10T05:20:30.305Z,1.25
2022-08-10T05:22:57.331Z,1.48
2022-08-10T05:25:24.038Z,1.73
2022-08-10T05:27:52.406Z,1.40
2022-08-10T05:30:21.868Z,1.65
2022-08-10T05:32:56.483Z,1.67
2022-08-10T05:35:56.870Z,1.80
2022-08-10T05:38:17.862Z,1.40
2022-08-10T05:40:46.479Z,1.35
2022-08-10T05:43:19.430Z,1.63
2022-08-10T05:46:17.956Z,1.13
2022-08-10T05:48:54.319Z,1.23
2022-08-10T05:51:23.652Z,1.10
2022-08-10T05:54:04.161Z,1.30
2022-08-10T05:56:56.573Z,1.08
2022-08-10T06:00:32.782Z,1.10
2022-08-10T06:02:41.407Z,1.08
2022-08-10T06:05:14.757Z,1.23
2022-08-10T06:07:47.940Z,0.85
2022-08-10T06:10:31.263Z,1.00
2022-08-10T06:13:27.135Z,1.23
2022-08-10T06:16:04.142Z,0.85
2022-08-10T06:18:31.516Z,0.82
2022-08-10T06:21:00.529Z,1.30
2022-08-10T06:23:29.607Z,0.90
2022-08-10T06:26:11.713Z,0.80
2022-08-10T06:29:01.919Z,1.05
2022-08-10T06:31:48.790Z,1.00
2022-08-10T06:34:39.493Z,1.10
2022-08-10T06:37:08.525Z,0.77
2022-08-10T06:39:36.791Z,1.10
2022-08-10T06:42:16.555Z,1.10
2022-08-10T06:44:54.430Z,1.00
2022-08-10T06:47:26.580Z,0.98
2022-08-10T06:49:59.778Z,1.00
2022-08-10T06:52:29.869Z,1.00
2022-08-10T06:54:58.743Z,1.20
2022-08-10T06:57:31.186Z,0.90
2022-08-10T07:00:01.717Z,1.00
2022-08-10T07:02:46.912Z,0.93
2022-08-10T07:05:20.454Z,1.00
2022-08-10T07:07:50.237Z,1.00
2022-08-10T07:10:19.950Z,0.80
2022-08-10T07:12:52.648Z,0.90
2022-08-10T07:15:21.049Z,0.80
2022-08-10T07:17:49.110Z,0.80
2022-08-10T07:20:18.903Z,0.77
2022-08-10T07:23:51.893Z,1.00
2022-08-10T07:25:37.913Z,1.02
2022-08-10T07:28:05.433Z,0.80
2022-08-10T07:30:36.922Z,0.98
2022-08-10T07:33:05.696Z,1.02
2022-08-10T07:35:42.916Z,0.90
2022-08-10T07:38:18.951Z,1.05
2022-08-10T07:40:47.576Z,0.80
2022-08-10T07:43:16.802Z,0.93
2022-08-10T07:45:44.938Z,0.80
2022-08-10T07:48:28.670Z,1.00
2022-08-10T07:50:59.341Z,0.80
2022-08-10T07:53:38.596Z,0.70
2022-08-10T07:56:16.838Z,1.10
2022-08-10T07:59:10.722Z,1.88
2022-08-10T08:01:42.662Z,0.70
2022-08-10T08:04:12.337Z,0.80
2022-08-10T08:06:44.026Z,0.70
2022-08-10T08:09:13.828Z,0.80
2022-08-10T08:11:44.087Z,0.70
2022-08-10T08:14:12.876Z,0.55
2022-08-10T08:16:44.323Z,0.80
2022-08-10T08:19:28.441Z,0.73
2022-08-10T08:24:05.428Z,0.70
2022-08-10T08:24:46.841Z,0.77
2022-08-10T08:27:16.777Z,0.70
2022-08-10T08:29:47.295Z,0.70
2022-08-10T08:32:18.348Z,0.80
2022-08-10T08:34:46.839Z,0.75
2022-08-10T08:38:26.496Z,0.70
2022-08-10T08:40:07.718Z,0.80
2022-08-10T08:42:52.674Z,0.73
2022-08-10T08:45:37.729Z,0.90
2022-08-10T08:48:46.016Z,0.90
2022-08-10T08:52:09.915Z,1.10
2022-08-10T08:54:32.921Z,0.77
2022-08-10T08:57:50.569Z,0.70
2022-08-10T09:00:45.104Z,1.00
2022-08-10T09:04:19.601Z,0.90
2022-08-10T09:06:55.131Z,0.82
2022-08-10T09:09:34.227Z,0.90
2022-08-10T09:12:10.096Z,1.00
2022-08-10T09:14:49.255Z,0.90
2022-08-10T09:17:37.939Z,0.68
2022-08-10T09:20:19.042Z,0.93
2022-08-10T09:23:08.255Z,0.90
2022-08-10T09:25:37.708Z,0.90
2022-08-10T09:28:11.595Z,0.85
2022-08-10T09:31:20.813Z,0.80
2022-08-10T09:36:20.385Z,0.80
2022-08-10T09:36:42.553Z,0.77
2022-08-10T09:40:06.720Z,0.80
2022-08-10T09:42:42.613Z,0.60
2022-08-10T09:45:24.052Z,0.63
2022-08-10T09:48:18.471Z,0.77
2022-08-10T09:51:44.369Z,0.70
2022-08-10T09:55:07.079Z,0.80
2022-08-10T09:57:46.806Z,1.08
2022-08-10T10:00:23.248Z,0.70
2022-08-10T10:02:52.471Z,0.80
2022-08-10T10:05:38.332Z,0.75
2022-08-10T10:08:17.973Z,0.60
2022-08-10T10:11:06.972Z,0.90
2022-08-10T10:13:48.955Z,0.95
2022-08-10T10:16:48.192Z,1.00
2022-08-10T10:19:36.158Z,0.98
2022-08-10T10:22:28.047Z,0.80
2022-08-10T10:25:19.517Z,0.80
2022-08-10T10:28:06.013Z,0.70
2022-08-10T10:30:40.495Z,0.90
2022-08-10T10:33:14.848Z,0.90
2022-08-10T10:35:52.146Z,0.60
2022-08-10T10:38:21.601Z,0.77
2022-08-10T10:41:14.383Z,0.65
2022-08-10T10:44:04.982Z,0.60
2022-08-10T10:46:59.085Z,0.77
2022-08-10T10:49:52.481Z,0.70
2022-08-10T10:52:40.800Z,0.80
2022-08-10T10:55:28.122Z,0.60
2022-08-10T10:58:20.161Z,0.70
2022-08-10T11:01:03.781Z,0.70
2022-08-10T11:04:06.133Z,0.70
2022-08-10T11:06:57.906Z,0.70
2022-08-10T11:10:08.828Z,0.77
2022-08-10T11:12:24.146Z,0.70
2022-08-10T11:15:26.100Z,0.73
2022-08-10T11:17:59.165Z,0.70
2022-08-10T11:20:38.677Z,0.70
2022-08-10T11:23:18.962Z,0.88
2022-08-10T11:25:53.904Z,0.55
2022-08-10T11:28:35.046Z,0.70
2022-08-10T11:31:19.470Z,0.50
2022-08-10T11:34:47.408Z,0.80
2022-08-10T11:37:10.695Z,0.60
2022-08-10T11:39:49.968Z,1.67
2022-08-10T11:42:53.119Z,0.80
2022-08-10T11:45:22.736Z,0.77
2022-08-10T11:48:54.260Z,0.68
2022-08-10T11:51:35.649Z,0.75
2022-08-10T11:54:12.744Z,0.70
2022-08-10T11:56:48.795Z,0.60
2022-08-10T11:59:58.216Z,0.75
2022-08-10T12:02:32.960Z,0.88
2022-08-10T12:05:21.692Z,0.60
2022-08-10T12:10:02.425Z,0.77
2022-08-10T12:10:41.145Z,0.70
2022-08-10T12:13:28.042Z,0.77
2022-08-10T12:16:04.742Z,0.98
2022-08-10T12:18:46.407Z,0.60
2022-08-10T12:21:21.951Z,0.85
2022-08-10T12:24:03.049Z,0.77
2022-08-10T12:26:38.056Z,0.73
2022-08-10T12:29:13.956Z,0.70
2022-08-10T12:31:47.971Z,0.63
2022-08-10T12:34:23.480Z,0.63
2022-08-10T12:37:35.553Z,1.00
2022-08-10T12:40:36.125Z,0.70
2022-08-10T12:44:03.688Z,0.70
2022-08-10T12:46:33.027Z,0.90
2022-08-10T12:49:36.356Z,0.55
2022-08-10T12:52:13.360Z,1.05
2022-08-10T12:54:42.141Z,0.80
2022-08-10T12:57:14.681Z,0.60
2022-08-10T12:59:44.143Z,0.60
2022-08-10T13:02:21.432Z,0.80
2022-08-10T13:04:51.959Z,1.00
2022-08-10T13:08:24.186Z,1.08
2022-08-10T13:10:30.943Z,1.00
2022-08-10T13:12:59.916Z,0.85
2022-08-10T13:15:50.770Z,0.77
2022-08-10T13:18:26.645Z,0.93
2022-08-10T13:20:55.970Z,1.10
2022-08-10T13:23:28.220Z,0.70
2022-08-10T13:25:58.203Z,0.70
2022-08-10T13:28:40.062Z,0.90
2022-08-10T13:31:22.131Z,1.00
2022-08-10T13:34:42.262Z,0.88
2022-08-10T13:37:11.262Z,1.02
2022-08-10T13:39:59.056Z,0.60
2022-08-10T13:42:41.152Z,0.90
2022-08-10T13:45:11.215Z,0.90
2022-08-10T13:47:49.108Z,0.77
2022-08-10T13:50:33.472Z,1.08
2022-08-10T13:53:09.948Z,0.90
2022-08-10T13:55:56.105Z,0.80
2022-08-10T13:58:31.067Z,0.82
2022-08-10T14:01:09.003Z,0.60
2022-08-10T14:03:39.933Z,0.90
2022-08-10T14:06:11.802Z,1.08
2022-08-10T14:08:39.483Z,0.82
2022-08-10T14:11:12.986Z,0.90
2022-08-10T14:13:53.135Z,0.70
2022-08-10T14:16:20.794Z,0.80
2022-08-10T14:18:51.200Z,0.85
2022-08-10T14:21:18.349Z,0.80
2022-08-10T14:23:51.999Z,0.65
2022-08-10T14:26:28.135Z,0.85
2022-08-10T14:29:08.880Z,0.82
2022-08-10T14:31:39.070Z,0.57
2022-08-10T14:34:59.489Z,0.90
2022-08-10T14:37:30.058Z,0.75
2022-08-10T14:40:11.718Z,0.73
2022-08-10T14:42:47.929Z,0.95
2022-08-10T14:45:24.740Z,0.90
2022-08-10T14:48:01.064Z,0.65
2022-08-10T14:50:32.288Z,0.65
2022-08-10T14:53:14.939Z,0.50
2022-08-10T14:55:58.712Z,0.70
2022-08-10T14:58:58.830Z,0.68
2022-08-10T15:01:59.879Z,0.80
2022-08-10T15:04:24.716Z,1.00
2022-08-10T15:07:22.831Z,0.57
2022-08-10T15:10:00.151Z,0.90
2022-08-10T15:12:38.484Z,1.00
2022-08-10T15:15:09.573Z,1.20
2022-08-10T15:17:43.170Z,0.80
2022-08-10T15:20:20.798Z,0.70
2022-08-10T15:22:54.133Z,0.80
2022-08-10T15:25:25.862Z,0.80
2022-08-10T15:28:06.034Z,0.82
2022-08-10T15:30:42.277Z,1.20
2022-08-10T15:34:02.031Z,0.50
2022-08-10T15:36:45.168Z,0.80
2022-08-10T15:40:25.304Z,0.98
2022-08-10T15:42:16.810Z,0.90
2022-08-10T15:44:45.351Z,0.80
2022-08-10T15:47:25.760Z,1.00
2022-08-10T15:50:02.726Z,0.70
2022-08-10T15:52:39.145Z,0.70
2022-08-10T15:55:41.670Z,0.70
2022-08-10T15:58:43.430Z,0.90
2022-08-10T16:02:14.430Z,0.70
2022-08-10T16:04:32.200Z,0.70
2022-08-10T16:07:12.358Z,0.70
2022-08-10T16:10:22.992Z,0.70
2022-08-10T16:12:45.041Z,1.23
2022-08-10T16:15:29.103Z,0.90
2022-08-10T16:18:03.339Z,1.00
2022-08-10T16:20:33.686Z,0.88
2022-08-10T16:23:29.047Z,0.60
2022-08-10T16:26:01.826Z,1.00
2022-08-10T16:28:38.669Z,0.82
2022-08-10T16:31:10.575Z,1.17
2022-08-10T16:33:53.971Z,1.00
2022-08-10T16:36:28.944Z,1.05
2022-08-10T16:38:57.612Z,1.10
2022-08-10T16:42:04.745Z,0.95
2022-08-10T16:44:20.178Z,1.27
2022-08-10T16:46:49.405Z,1.02
2022-08-10T16:49:21.445Z,1.25
2022-08-10T16:52:11.286Z,0.93
2022-08-10T16:54:41.427Z,0.80
2022-08-10T16:57:11.742Z,1.33
2022-08-10T16:59:40.697Z,0.85
2022-08-10T17:02:16.990Z,0.90
2022-08-10T17:04:46.409Z,0.90
2022-08-10T17:07:17.119Z,0.73
2022-08-10T17:09:50.757Z,0.70
2022-08-10T17:12:52.987Z,0.80
2022-08-10T17:15:26.112Z,0.90
2022-08-10T17:17:54.288Z,0.70
2022-08-10T17:20:31.585Z,0.70
2022-08-10T17:23:06.544Z,0.90
2022-08-10T17:25:48.234Z,0.90
2022-08-10T17:28:32.794Z,0.70
2022-08-10T17:31:23.792Z,1.00
2022-08-10T17:33:58.079Z,1.10
2022-08-10T17:36:32.191Z,0.88
2022-08-10T17:39:00.549Z,0.80
2022-08-10T17:41:31.428Z,0.95
2022-08-10T17:44:04.619Z,0.90
2022-08-10T17:46:40.343Z,1.10
2022-08-10T17:49:13.723Z,0.73
2022-08-10T17:51:42.409Z,0.80
2022-08-10T17:54:22.701Z,1.00
2022-08-10T17:56:57.794Z,1.00
2022-08-10T17:59:27.328Z,0.77
2022-08-10T18:02:02.187Z,0.77
2022-08-10T18:04:40.896Z,1.20
2022-08-10T18:07:12.343Z,0.70
2022-08-10T18:10:01.666Z,1.20
2022-08-10T18:12:39.705Z,1.00
2022-08-10T18:15:13.865Z,0.80
2022-08-10T18:17:47.507Z,0.70
2022-08-10T18:20:19.951Z,0.55
2022-08-10T18:22:51.376Z,0.85
2022-08-10T18:25:26.860Z,1.00
2022-08-10T18:28:04.618Z,0.90
2022-08-10T18:30:36.402Z,0.60
2022-08-10T18:33:08.312Z,0.82
2022-08-10T18:35:35.751Z,1.00
2022-08-10T18:38:09.295Z,0.80
2022-08-10T18:40:39.962Z,0.80
2022-08-10T18:44:06.607Z,0.73
2022-08-10T18:46:02.040Z,0.75
2022-08-10T18:48:42.089Z,0.80
2022-08-10T18:51:11.317Z,0.60
2022-08-10T18:53:48.707Z,0.77
2022-08-10T18:56:20.989Z,1.00
2022-08-10T18:58:47.669Z,1.05
2022-08-10T19:01:42.675Z,0.88
2022-08-10T19:04:29.630Z,0.93
2022-08-10T19:07:00.477Z,1.08
2022-08-10T19:09:48.046Z,0.90
2022-08-10T19:12:42.776Z,1.17
2022-08-10T19:15:23.712Z,0.80
2022-08-10T19:18:17.146Z,1.45
2022-08-10T19:20:48.572Z,1.65
2022-08-10T19:23:53.103Z,1.13
2022-08-10T19:26:41.922Z,1.65
2022-08-10T19:30:08.254Z,1.67
2022-08-10T19:32:10.637Z,2.20
2022-08-10T19:34:51.265Z,2.33
2022-08-10T19:37:37.140Z,2.50
2022-08-10T19:40:46.576Z,2.60
2022-08-10T19:43:59.890Z,2.22
2022-08-10T19:46:43.278Z,1.40
2022-08-10T19:49:22.489Z,1.65
2022-08-10T19:52:11.197Z,1.80
2022-08-10T19:54:56.810Z,1.48
2022-08-10T19:57:39.863Z,1.10
2022-08-10T20:00:19.224Z,1.75
2022-08-10T20:03:00.697Z,0.90
2022-08-10T20:05:33.573Z,0.98
2022-08-10T20:08:17.751Z,1.65
2022-08-10T20:11:44.479Z,1.20
2022-08-10T20:14:30.445Z,1.10
2022-08-10T20:17:04.860Z,0.90
2022-08-10T20:19:58.726Z,1.08
2022-08-10T20:22:30.416Z,0.88
2022-08-10T20:25:14.402Z,1.00
2022-08-10T20:28:13.279Z,1.10
2022-08-10T20:30:46.567Z,0.75
2022-08-10T20:33:38.395Z,0.90
2022-08-10T20:36:09.761Z,1.20
2022-08-10T20:39:10.156Z,0.80
2022-08-10T20:41:59.815Z,0.82
2022-08-10T20:44:57.405Z,0.93
2022-08-10T20:48:11.717Z,1.00
2022-08-10T20:50:55.936Z,1.30
2022-08-10T20:53:26.837Z,1.45
2022-08-10T20:56:13.751Z,1.10
2022-08-10T20:59:16.634Z,1.13
2022-08-10T21:02:11.324Z,0.90
2022-08-10T21:05:19.558Z,1.08
2022-08-10T21:08:05.295Z,1.10
2022-08-10T21:10:38.571Z,0.95
2022-08-10T21:14:01.834Z,1.00
2022-08-10T21:16:52.842Z,0.98
2022-08-10T21:19:41.577Z,1.08
2022-08-10T21:22:29.031Z,1.08
2022-08-10T21:25:04.966Z,1.30
2022-08-10T21:27:47.142Z,1.60
2022-08-10T21:30:26.116Z,1.60
2022-08-10T21:33:05.180Z,1.20
2022-08-10T21:35:51.134Z,0.98
2022-08-10T21:38:36.400Z,0.90
2022-08-10T21:41:56.423Z,1.00
2022-08-10T21:45:11.349Z,0.85
2022-08-10T21:48:17.444Z,1.00
2022-08-10T21:52:00.591Z,0.80
2022-08-10T21:54:54.142Z,1.13
2022-08-10T21:58:07.297Z,0.80
2022-08-10T22:00:57.727Z,0.80
2022-08-10T22:03:43.700Z,1.02
2022-08-10T22:06:33.813Z,0.77
2022-08-10T22:09:33.726Z,1.08
2022-08-10T22:12:34.396Z,1.05
2022-08-10T22:16:10.389Z,1.17
2022-08-10T22:19:01.409Z,1.15
2022-08-10T22:22:34.461Z,1.15
2022-08-10T22:26:07.340Z,1.05
2022-08-10T22:29:11.667Z,1.17
2022-08-10T22:32:15.357Z,1.20
2022-08-10T22:35:22.351Z,1.20
2022-08-10T22:38:15.085Z,0.90
2022-08-10T22:41:05.031Z,1.20
2022-08-10T22:43:52.764Z,1.05
2022-08-10T22:46:43.570Z,1.00
2022-08-10T22:49:10.664Z,0.98
2022-08-10T22:51:44.266Z,1.08
2022-08-10T22:55:04.144Z,1.20
2022-08-10T22:57:49.839Z,0.90
2022-08-10T23:00:30.999Z,0.95
2022-08-10T23:03:14.526Z,1.15
2022-08-10T23:05:54.078Z,0.82
2022-08-10T23:08:32.402Z,1.23
2022-08-10T23:11:08.608Z,1.38
2022-08-10T23:13:43.445Z,1.17
2022-08-10T23:16:36.512Z,1.17
2022-08-10T23:19:18.535Z,1.30
2022-08-10T23:22:03.940Z,0.95
2022-08-10T23:24:34.142Z,1.10
2022-08-10T23:27:12.464Z,1.08
2022-08-10T23:30:03.647Z,1.13
2022-08-10T23:32:35.352Z,1.27
2022-08-10T23:36:29.621Z,1.00
2022-08-10T23:37:58.208Z,1.00
2022-08-10T23:40:26.518Z,1.17
2022-08-10T23:42:55.834Z,1.20
2022-08-10T23:45:25.412Z,1.02
2022-08-10T23:47:57.294Z,1.13
2022-08-10T23:50:26.172Z,1.08
2022-08-10T23:52:58.394Z,1.10
2022-08-10T23:55:29.940Z,0.90
2022-08-10T23:58:22.229Z,1.10
